sensor_id;sensor_type;location;lat;lon;timestamp;P1;durP1;ratioP1;P2;durP2;ratioP2
4309;SDS011;2168;53.576;9.980;2023-11-21T00:01:42;1.10;;;1.10;;
4309;SDS011;2168;53.576;9.980;2023-11-21T00:04:08;0.80;;;0.80;;
4309;SDS011;2168;53.576;9.980;2023-11-21T00:06:33;1.00;;;1.00;;
4309;SDS011;2168;53.576;9.980;2023-11-21T00:08:59;1.07;;;1.07;;
4309;SDS011;2168;53.576;9.980;2023-11-21T00:11:24;0.60;;;0.60;;
4309;SDS011;2168;53.576;9.980;2023-11-21T00:13:50;0.80;;;0.80;;
4309;SDS011;2168;53.576;9.980;2023-11-21T00:16:15;0.90;;;0.90;;
4309;SDS011;2168;53.576;9.980;2023-11-21T00:18:40;0.80;;;0.80;;
4309;SDS011;2168;53.576;9.980;2023-11-21T00:21:05;0.80;;;0.80;;
4309;SDS011;2168;53.576;9.980;2023-11-21T00:23:31;0.70;;;0.70;;
4309;SDS011;2168;53.576;9.980;2023-11-21T00:25:56;0.80;;;0.80;;
4309;SDS011;2168;53.576;9.980;2023-11-21T00:28:21;0.90;;;0.90;;
4309;SDS011;2168;53.576;9.980;2023-11-21T00:30:47;0.90;;;0.90;;
4309;SDS011;2168;53.576;9.980;2023-11-21T00:33:12;0.90;;;0.90;;
4309;SDS011;2168;53.576;9.980;2023-11-21T00:35:37;0.90;;;0.90;;
4309;SDS011;2168;53.576;9.980;2023-11-21T00:38:02;0.80;;;0.80;;
4309;SDS011;2168;53.576;9.980;2023-11-21T00:40:28;1.00;;;1.00;;
4309;SDS011;2168;53.576;9.980;2023-11-21T00:42:53;0.90;;;0.90;;
4309;SDS011;2168;53.576;9.980;2023-11-21T00:45:18;0.80;;;0.80;;
4309;SDS011;2168;53.576;9.980;2023-11-21T00:47:44;0.90;;;0.90;;
4309;SDS011;2168;53.576;9.980;2023-11-21T00:50:09;0.70;;;0.70;;
4309;SDS011;2168;53.576;9.980;2023-11-21T00:52:34;0.87;;;0.87;;
4309;SDS011;2168;53.576;9.980;2023-11-21T00:55:00;0.83;;;0.83;;
4309;SDS011;2168;53.576;9.980;2023-11-21T00:57:26;0.80;;;0.80;;
4309;SDS011;2168;53.576;9.980;2023-11-21T00:59:52;1.00;;;1.00;;
4309;SDS011;2168;53.576;9.980;2023-11-21T01:02:17;0.90;;;0.90;;
4309;SDS011;2168;53.576;9.980;2023-11-21T01:04:43;0.80;;;0.80;;
4309;SDS011;2168;53.576;9.980;2023-11-21T01:07:08;0.90;;;0.90;;
4309;SDS011;2168;53.576;9.980;2023-11-21T01:09:34;1.20;;;1.20;;
4309;SDS011;2168;53.576;9.980;2023-11-21T01:11:59;0.83;;;0.83;;
4309;SDS011;2168;53.576;9.980;2023-11-21T01:14:24;0.80;;;0.80;;
4309;SDS011;2168;53.576;9.980;2023-11-21T01:16:51;0.90;;;0.90;;
4309;SDS011;2168;53.576;9.980;2023-11-21T01:19:16;0.90;;;0.90;;
4309;SDS011;2168;53.576;9.980;2023-11-21T01:21:41;1.00;;;1.00;;
4309;SDS011;2168;53.576;9.980;2023-11-21T01:24:07;0.90;;;0.90;;
4309;SDS011;2168;53.576;9.980;2023-11-21T01:26:32;0.90;;;0.90;;
4309;SDS011;2168;53.576;9.980;2023-11-21T01:28:58;0.80;;;0.80;;
4309;SDS011;2168;53.576;9.980;2023-11-21T01:31:23;1.00;;;1.00;;
4309;SDS011;2168;53.576;9.980;2023-11-21T01:33:48;0.80;;;0.80;;
4309;SDS011;2168;53.576;9.980;2023-11-21T01:36:13;0.90;;;0.90;;
4309;SDS011;2168;53.576;9.980;2023-11-21T01:38:38;1.00;;;1.00;;
4309;SDS011;2168;53.576;9.980;2023-11-21T01:41:04;0.80;;;0.80;;
4309;SDS011;2168;53.576;9.980;2023-11-21T01:43:29;0.70;;;0.70;;
4309;SDS011;2168;53.576;9.980;2023-11-21T01:45:56;0.70;;;0.70;;
4309;SDS011;2168;53.576;9.980;2023-11-21T01:48:22;0.70;;;0.70;;
4309;SDS011;2168;53.576;9.980;2023-11-21T01:50:47;0.83;;;0.83;;
4309;SDS011;2168;53.576;9.980;2023-11-21T01:53:13;0.97;;;0.97;;
4309;SDS011;2168;53.576;9.980;2023-11-21T01:55:39;0.90;;;0.90;;
4309;SDS011;2168;53.576;9.980;2023-11-21T01:58:05;0.90;;;0.90;;
4309;SDS011;2168;53.576;9.980;2023-11-21T02:00:30;0.90;;;0.90;;
4309;SDS011;2168;53.576;9.980;2023-11-21T02:02:56;0.90;;;0.90;;
4309;SDS011;2168;53.576;9.980;2023-11-21T02:05:21;0.90;;;0.90;;
4309;SDS011;2168;53.576;9.980;2023-11-21T02:07:47;0.97;;;0.97;;
4309;SDS011;2168;53.576;9.980;2023-11-21T02:10:17;0.83;;;0.83;;
4309;SDS011;2168;53.576;9.980;2023-11-21T02:12:44;0.90;;;0.90;;
4309;SDS011;2168;53.576;9.980;2023-11-21T02:15:10;0.90;;;0.90;;
4309;SDS011;2168;53.576;9.980;2023-11-21T02:17:40;1.00;;;1.00;;
4309;SDS011;2168;53.576;9.980;2023-11-21T02:20:05;0.90;;;0.90;;
4309;SDS011;2168;53.576;9.980;2023-11-21T02:22:31;0.90;;;0.90;;
4309;SDS011;2168;53.576;9.980;2023-11-21T02:25:00;0.90;;;0.90;;
4309;SDS011;2168;53.576;9.980;2023-11-21T02:27:25;0.90;;;0.90;;
4309;SDS011;2168;53.576;9.980;2023-11-21T02:29:52;0.80;;;0.80;;
4309;SDS011;2168;53.576;9.980;2023-11-21T02:32:17;0.80;;;0.80;;
4309;SDS011;2168;53.576;9.980;2023-11-21T02:34:44;0.90;;;0.90;;
4309;SDS011;2168;53.576;9.980;2023-11-21T02:37:09;0.80;;;0.80;;
4309;SDS011;2168;53.576;9.980;2023-11-21T02:39:35;0.90;;;0.90;;
4309;SDS011;2168;53.576;9.980;2023-11-21T02:42:00;0.80;;;0.80;;
4309;SDS011;2168;53.576;9.980;2023-11-21T02:44:25;0.80;;;0.80;;
4309;SDS011;2168;53.576;9.980;2023-11-21T02:46:51;0.97;;;0.97;;
4309;SDS011;2168;53.576;9.980;2023-11-21T02:49:16;0.90;;;0.90;;
4309;SDS011;2168;53.576;9.980;2023-11-21T02:51:41;0.80;;;0.80;;
4309;SDS011;2168;53.576;9.980;2023-11-21T02:54:06;0.80;;;0.80;;
4309;SDS011;2168;53.576;9.980;2023-11-21T02:56:33;0.90;;;0.90;;
4309;SDS011;2168;53.576;9.980;2023-11-21T02:58:59;0.90;;;0.90;;
4309;SDS011;2168;53.576;9.980;2023-11-21T03:01:24;0.90;;;0.90;;
4309;SDS011;2168;53.576;9.980;2023-11-21T03:03:50;0.90;;;0.90;;
4309;SDS011;2168;53.576;9.980;2023-11-21T03:06:18;0.70;;;0.70;;
4309;SDS011;2168;53.576;9.980;2023-11-21T03:08:43;0.80;;;0.80;;
4309;SDS011;2168;53.576;9.980;2023-11-21T03:11:09;0.80;;;0.80;;
4309;SDS011;2168;53.576;9.980;2023-11-21T03:13:34;0.83;;;0.83;;
4309;SDS011;2168;53.576;9.980;2023-11-21T03:15:59;0.90;;;0.90;;
4309;SDS011;2168;53.576;9.980;2023-11-21T03:18:24;0.80;;;0.80;;
4309;SDS011;2168;53.576;9.980;2023-11-21T03:20:51;0.90;;;0.90;;
4309;SDS011;2168;53.576;9.980;2023-11-21T03:23:17;0.90;;;0.90;;
4309;SDS011;2168;53.576;9.980;2023-11-21T03:25:42;0.90;;;0.90;;
4309;SDS011;2168;53.576;9.980;2023-11-21T03:28:07;0.80;;;0.80;;
4309;SDS011;2168;53.576;9.980;2023-11-21T03:30:33;0.90;;;0.90;;
4309;SDS011;2168;53.576;9.980;2023-11-21T03:32:58;0.80;;;0.80;;
4309;SDS011;2168;53.576;9.980;2023-11-21T03:35:23;0.60;;;0.60;;
4309;SDS011;2168;53.576;9.980;2023-11-21T03:37:49;0.87;;;0.87;;
4309;SDS011;2168;53.576;9.980;2023-11-21T03:40:14;0.77;;;0.77;;
4309;SDS011;2168;53.576;9.980;2023-11-21T03:42:40;0.97;;;0.97;;
4309;SDS011;2168;53.576;9.980;2023-11-21T03:45:05;0.70;;;0.70;;
4309;SDS011;2168;53.576;9.980;2023-11-21T03:47:31;0.90;;;0.90;;
4309;SDS011;2168;53.576;9.980;2023-11-21T03:49:56;0.80;;;0.80;;
4309;SDS011;2168;53.576;9.980;2023-11-21T03:52:21;0.80;;;0.80;;
4309;SDS011;2168;53.576;9.980;2023-11-21T03:54:46;0.70;;;0.70;;
4309;SDS011;2168;53.576;9.980;2023-11-21T03:57:11;0.90;;;0.90;;
4309;SDS011;2168;53.576;9.980;2023-11-21T03:59:39;0.70;;;0.70;;
4309;SDS011;2168;53.576;9.980;2023-11-21T04:02:04;0.80;;;0.80;;
4309;SDS011;2168;53.576;9.980;2023-11-21T04:04:29;1.43;;;1.43;;
4309;SDS011;2168;53.576;9.980;2023-11-21T04:06:55;0.90;;;0.90;;
4309;SDS011;2168;53.576;9.980;2023-11-21T04:09:21;0.63;;;0.63;;
4309;SDS011;2168;53.576;9.980;2023-11-21T04:11:50;0.83;;;0.83;;
4309;SDS011;2168;53.576;9.980;2023-11-21T04:14:15;0.87;;;0.87;;
4309;SDS011;2168;53.576;9.980;2023-11-21T04:16:40;0.77;;;0.77;;
4309;SDS011;2168;53.576;9.980;2023-11-21T04:19:05;0.80;;;0.80;;
4309;SDS011;2168;53.576;9.980;2023-11-21T04:21:31;0.80;;;0.80;;
4309;SDS011;2168;53.576;9.980;2023-11-21T04:23:58;0.77;;;0.77;;
4309;SDS011;2168;53.576;9.980;2023-11-21T04:26:23;0.60;;;0.60;;
4309;SDS011;2168;53.576;9.980;2023-11-21T04:28:48;0.87;;;0.87;;
4309;SDS011;2168;53.576;9.980;2023-11-21T04:31:13;0.70;;;0.70;;
4309;SDS011;2168;53.576;9.980;2023-11-21T04:33:38;0.53;;;0.53;;
4309;SDS011;2168;53.576;9.980;2023-11-21T04:36:04;0.80;;;0.80;;
4309;SDS011;2168;53.576;9.980;2023-11-21T04:38:29;0.80;;;0.80;;
4309;SDS011;2168;53.576;9.980;2023-11-21T04:40:54;0.70;;;0.70;;
4309;SDS011;2168;53.576;9.980;2023-11-21T04:43:19;0.77;;;0.77;;
4309;SDS011;2168;53.576;9.980;2023-11-21T04:45:44;0.83;;;0.83;;
4309;SDS011;2168;53.576;9.980;2023-11-21T04:48:09;0.77;;;0.77;;
4309;SDS011;2168;53.576;9.980;2023-11-21T04:50:35;1.63;;;1.63;;
4309;SDS011;2168;53.576;9.980;2023-11-21T04:53:00;0.70;;;0.70;;
4309;SDS011;2168;53.576;9.980;2023-11-21T04:55:25;0.80;;;0.80;;
4309;SDS011;2168;53.576;9.980;2023-11-21T04:57:54;0.50;;;0.50;;
4309;SDS011;2168;53.576;9.980;2023-11-21T05:00:19;0.80;;;0.80;;
4309;SDS011;2168;53.576;9.980;2023-11-21T05:02:46;0.80;;;0.80;;
4309;SDS011;2168;53.576;9.980;2023-11-21T05:05:11;0.80;;;0.80;;
4309;SDS011;2168;53.576;9.980;2023-11-21T05:07:38;0.80;;;0.80;;
4309;SDS011;2168;53.576;9.980;2023-11-21T05:10:04;0.80;;;0.80;;
4309;SDS011;2168;53.576;9.980;2023-11-21T05:12:32;2.20;;;2.20;;
4309;SDS011;2168;53.576;9.980;2023-11-21T05:15:04;0.80;;;0.80;;
4309;SDS011;2168;53.576;9.980;2023-11-21T05:17:34;0.50;;;0.50;;
4309;SDS011;2168;53.576;9.980;2023-11-21T05:20:00;1.00;;;1.00;;
4309;SDS011;2168;53.576;9.980;2023-11-21T05:22:28;0.90;;;0.90;;
4309;SDS011;2168;53.576;9.980;2023-11-21T05:24:54;0.70;;;0.70;;
4309;SDS011;2168;53.576;9.980;2023-11-21T05:27:19;0.70;;;0.70;;
4309;SDS011;2168;53.576;9.980;2023-11-21T05:29:44;0.63;;;0.63;;
4309;SDS011;2168;53.576;9.980;2023-11-21T05:32:09;0.70;;;0.70;;
4309;SDS011;2168;53.576;9.980;2023-11-21T05:34:34;0.80;;;0.80;;
4309;SDS011;2168;53.576;9.980;2023-11-21T05:36:59;0.70;;;0.70;;
4309;SDS011;2168;53.576;9.980;2023-11-21T05:39:25;0.77;;;0.77;;
4309;SDS011;2168;53.576;9.980;2023-11-21T05:41:50;1.40;;;1.40;;
4309;SDS011;2168;53.576;9.980;2023-11-21T05:44:15;0.73;;;0.73;;
4309;SDS011;2168;53.576;9.980;2023-11-21T05:46:40;0.80;;;0.80;;
4309;SDS011;2168;53.576;9.980;2023-11-21T05:49:08;1.30;;;1.30;;
4309;SDS011;2168;53.576;9.980;2023-11-21T05:51:33;1.00;;;1.00;;
4309;SDS011;2168;53.576;9.980;2023-11-21T05:53:59;1.00;;;1.00;;
4309;SDS011;2168;53.576;9.980;2023-11-21T05:56:24;0.73;;;0.73;;
4309;SDS011;2168;53.576;9.980;2023-11-21T05:58:49;1.20;;;1.20;;
4309;SDS011;2168;53.576;9.980;2023-11-21T06:01:15;0.80;;;0.80;;
4309;SDS011;2168;53.576;9.980;2023-11-21T06:03:40;1.20;;;1.20;;
4309;SDS011;2168;53.576;9.980;2023-11-21T06:06:05;1.50;;;1.50;;
4309;SDS011;2168;53.576;9.980;2023-11-21T06:08:31;1.17;;;1.17;;
4309;SDS011;2168;53.576;9.980;2023-11-21T06:10:56;1.03;;;1.03;;
4309;SDS011;2168;53.576;9.980;2023-11-21T06:13:22;1.03;;;1.03;;
4309;SDS011;2168;53.576;9.980;2023-11-21T06:15:49;1.00;;;1.00;;
4309;SDS011;2168;53.576;9.980;2023-11-21T06:18:15;0.80;;;0.80;;
4309;SDS011;2168;53.576;9.980;2023-11-21T06:20:40;1.10;;;1.10;;
4309;SDS011;2168;53.576;9.980;2023-11-21T06:23:06;1.10;;;1.10;;
4309;SDS011;2168;53.576;9.980;2023-11-21T06:25:31;1.47;;;1.47;;
4309;SDS011;2168;53.576;9.980;2023-11-21T06:28:00;1.33;;;1.33;;
4309;SDS011;2168;53.576;9.980;2023-11-21T06:30:26;1.30;;;1.30;;
4309;SDS011;2168;53.576;9.980;2023-11-21T06:32:51;1.40;;;1.40;;
4309;SDS011;2168;53.576;9.980;2023-11-21T06:35:17;1.40;;;1.40;;
4309;SDS011;2168;53.576;9.980;2023-11-21T06:37:42;1.60;;;1.60;;
4309;SDS011;2168;53.576;9.980;2023-11-21T06:40:12;1.90;;;1.90;;
4309;SDS011;2168;53.576;9.980;2023-11-21T06:42:40;3.30;;;3.30;;
4309;SDS011;2168;53.576;9.980;2023-11-21T06:45:06;1.50;;;1.50;;
4309;SDS011;2168;53.576;9.980;2023-11-21T06:47:32;1.83;;;1.83;;
4309;SDS011;2168;53.576;9.980;2023-11-21T06:50:00;1.10;;;1.10;;
4309;SDS011;2168;53.576;9.980;2023-11-21T06:52:25;1.10;;;1.10;;
4309;SDS011;2168;53.576;9.980;2023-11-21T06:54:51;0.80;;;0.80;;
4309;SDS011;2168;53.576;9.980;2023-11-21T06:57:16;1.03;;;1.03;;
4309;SDS011;2168;53.576;9.980;2023-11-21T06:59:41;0.80;;;0.80;;
4309;SDS011;2168;53.576;9.980;2023-11-21T07:02:06;1.10;;;1.10;;
4309;SDS011;2168;53.576;9.980;2023-11-21T07:04:35;1.33;;;1.33;;
4309;SDS011;2168;53.576;9.980;2023-11-21T07:07:01;1.30;;;1.30;;
4309;SDS011;2168;53.576;9.980;2023-11-21T07:09:27;1.20;;;1.20;;
4309;SDS011;2168;53.576;9.980;2023-11-21T07:11:52;1.20;;;1.20;;
4309;SDS011;2168;53.576;9.980;2023-11-21T07:14:18;1.20;;;1.20;;
4309;SDS011;2168;53.576;9.980;2023-11-21T07:16:44;1.40;;;1.40;;
4309;SDS011;2168;53.576;9.980;2023-11-21T07:19:10;1.33;;;1.33;;
4309;SDS011;2168;53.576;9.980;2023-11-21T07:21:35;0.97;;;0.97;;
4309;SDS011;2168;53.576;9.980;2023-11-21T07:24:01;0.70;;;0.70;;
4309;SDS011;2168;53.576;9.980;2023-11-21T07:26:26;1.10;;;1.10;;
4309;SDS011;2168;53.576;9.980;2023-11-21T07:28:52;1.37;;;1.37;;
4309;SDS011;2168;53.576;9.980;2023-11-21T07:31:17;1.20;;;1.20;;
4309;SDS011;2168;53.576;9.980;2023-11-21T07:33:42;1.33;;;1.33;;
4309;SDS011;2168;53.576;9.980;2023-11-21T07:36:08;1.90;;;1.90;;
4309;SDS011;2168;53.576;9.980;2023-11-21T07:38:33;1.20;;;1.20;;
4309;SDS011;2168;53.576;9.980;2023-11-21T07:40:58;1.07;;;1.07;;
4309;SDS011;2168;53.576;9.980;2023-11-21T07:43:26;1.20;;;1.20;;
4309;SDS011;2168;53.576;9.980;2023-11-21T07:45:51;1.20;;;1.20;;
4309;SDS011;2168;53.576;9.980;2023-11-21T07:48:16;1.27;;;1.27;;
4309;SDS011;2168;53.576;9.980;2023-11-21T07:50:41;1.13;;;1.13;;
4309;SDS011;2168;53.576;9.980;2023-11-21T07:53:06;1.03;;;1.03;;
4309;SDS011;2168;53.576;9.980;2023-11-21T07:55:31;1.07;;;1.07;;
4309;SDS011;2168;53.576;9.980;2023-11-21T07:57:58;1.10;;;1.10;;
4309;SDS011;2168;53.576;9.980;2023-11-21T08:00:23;1.43;;;1.43;;
4309;SDS011;2168;53.576;9.980;2023-11-21T08:02:49;1.50;;;1.50;;
4309;SDS011;2168;53.576;9.980;2023-11-21T08:05:14;1.40;;;1.40;;
4309;SDS011;2168;53.576;9.980;2023-11-21T08:07:40;1.20;;;1.20;;
4309;SDS011;2168;53.576;9.980;2023-11-21T08:10:05;2.00;;;2.00;;
4309;SDS011;2168;53.576;9.980;2023-11-21T08:12:31;1.70;;;1.70;;
4309;SDS011;2168;53.576;9.980;2023-11-21T08:14:56;1.67;;;1.67;;
4309;SDS011;2168;53.576;9.980;2023-11-21T08:17:22;1.30;;;1.30;;
4309;SDS011;2168;53.576;9.980;2023-11-21T08:19:48;1.57;;;1.57;;
4309;SDS011;2168;53.576;9.980;2023-11-21T08:22:15;1.70;;;1.70;;
4309;SDS011;2168;53.576;9.980;2023-11-21T08:24:41;2.20;;;2.20;;
4309;SDS011;2168;53.576;9.980;2023-11-21T08:27:06;2.30;;;2.30;;
4309;SDS011;2168;53.576;9.980;2023-11-21T08:29:32;2.00;;;2.00;;
4309;SDS011;2168;53.576;9.980;2023-11-21T08:31:57;1.90;;;1.90;;
4309;SDS011;2168;53.576;9.980;2023-11-21T08:34:22;1.60;;;1.60;;
4309;SDS011;2168;53.576;9.980;2023-11-21T08:36:47;2.10;;;2.10;;
4309;SDS011;2168;53.576;9.980;2023-11-21T08:39:12;1.33;;;1.33;;
4309;SDS011;2168;53.576;9.980;2023-11-21T08:41:44;1.73;;;1.73;;
4309;SDS011;2168;53.576;9.980;2023-11-21T08:44:09;2.73;;;2.73;;
4309;SDS011;2168;53.576;9.980;2023-11-21T08:46:34;1.60;;;1.60;;
4309;SDS011;2168;53.576;9.980;2023-11-21T08:49:01;1.70;;;1.70;;
4309;SDS011;2168;53.576;9.980;2023-11-21T08:51:27;2.13;;;2.13;;
4309;SDS011;2168;53.576;9.980;2023-11-21T08:53:52;3.70;;;3.70;;
4309;SDS011;2168;53.576;9.980;2023-11-21T08:56:18;2.30;;;2.30;;
4309;SDS011;2168;53.576;9.980;2023-11-21T08:58:44;2.00;;;2.00;;
4309;SDS011;2168;53.576;9.980;2023-11-21T09:01:10;1.77;;;1.77;;
4309;SDS011;2168;53.576;9.980;2023-11-21T09:03:35;1.97;;;1.97;;
4309;SDS011;2168;53.576;9.980;2023-11-21T09:06:00;2.43;;;2.43;;
4309;SDS011;2168;53.576;9.980;2023-11-21T09:08:25;3.10;;;3.10;;
4309;SDS011;2168;53.576;9.980;2023-11-21T09:10:53;1.70;;;1.70;;
4309;SDS011;2168;53.576;9.980;2023-11-21T09:13:18;1.43;;;1.43;;
4309;SDS011;2168;53.576;9.980;2023-11-21T09:15:43;1.50;;;1.50;;
4309;SDS011;2168;53.576;9.980;2023-11-21T09:18:11;1.83;;;1.83;;
4309;SDS011;2168;53.576;9.980;2023-11-21T09:20:36;1.70;;;1.70;;
4309;SDS011;2168;53.576;9.980;2023-11-21T09:23:01;1.47;;;1.47;;
4309;SDS011;2168;53.576;9.980;2023-11-21T09:25:26;1.80;;;1.80;;
4309;SDS011;2168;53.576;9.980;2023-11-21T09:27:53;2.37;;;2.37;;
4309;SDS011;2168;53.576;9.980;2023-11-21T09:30:18;2.47;;;2.47;;
4309;SDS011;2168;53.576;9.980;2023-11-21T09:32:44;2.17;;;2.17;;
4309;SDS011;2168;53.576;9.980;2023-11-21T09:35:10;2.80;;;2.80;;
4309;SDS011;2168;53.576;9.980;2023-11-21T09:37:36;2.00;;;2.00;;
4309;SDS011;2168;53.576;9.980;2023-11-21T09:40:02;1.90;;;1.90;;
4309;SDS011;2168;53.576;9.980;2023-11-21T09:42:38;1.40;;;1.40;;
4309;SDS011;2168;53.576;9.980;2023-11-21T09:45:14;1.30;;;1.30;;
4309;SDS011;2168;53.576;9.980;2023-11-21T09:47:40;2.03;;;2.03;;
4309;SDS011;2168;53.576;9.980;2023-11-21T09:50:07;3.53;;;3.53;;
4309;SDS011;2168;53.576;9.980;2023-11-21T09:55:16;1.70;;;1.70;;
4309;SDS011;2168;53.576;9.980;2023-11-21T09:57:43;1.90;;;1.90;;
4309;SDS011;2168;53.576;9.980;2023-11-21T10:00:10;3.00;;;3.00;;
4309;SDS011;2168;53.576;9.980;2023-11-21T10:02:37;1.90;;;1.90;;
4309;SDS011;2168;53.576;9.980;2023-11-21T10:05:03;1.60;;;1.60;;
4309;SDS011;2168;53.576;9.980;2023-11-21T10:07:28;1.20;;;1.20;;
4309;SDS011;2168;53.576;9.980;2023-11-21T10:09:56;1.10;;;1.10;;
4309;SDS011;2168;53.576;9.980;2023-11-21T10:12:22;1.20;;;1.20;;
4309;SDS011;2168;53.576;9.980;2023-11-21T10:14:48;1.53;;;1.53;;
4309;SDS011;2168;53.576;9.980;2023-11-21T10:17:14;2.30;;;2.30;;
4309;SDS011;2168;53.576;9.980;2023-11-21T10:19:41;1.30;;;1.30;;
4309;SDS011;2168;53.576;9.980;2023-11-21T10:22:07;1.27;;;1.27;;
4309;SDS011;2168;53.576;9.980;2023-11-21T10:24:33;1.80;;;1.80;;
4309;SDS011;2168;53.576;9.980;2023-11-21T10:26:59;1.27;;;1.27;;
4309;SDS011;2168;53.576;9.980;2023-11-21T10:29:28;1.00;;;1.00;;
4309;SDS011;2168;53.576;9.980;2023-11-21T10:31:54;2.07;;;2.07;;
4309;SDS011;2168;53.576;9.980;2023-11-21T10:37:25;1.90;;;1.90;;
4309;SDS011;2168;53.576;9.980;2023-11-21T10:39:56;1.80;;;1.80;;
4309;SDS011;2168;53.576;9.980;2023-11-21T10:42:21;1.73;;;1.73;;
4309;SDS011;2168;53.576;9.980;2023-11-21T10:47:52;1.27;;;1.27;;
4309;SDS011;2168;53.576;9.980;2023-11-21T10:53:20;1.20;;;1.20;;
4309;SDS011;2168;53.576;9.980;2023-11-21T10:58:49;1.10;;;1.10;;
4309;SDS011;2168;53.576;9.980;2023-11-21T11:01:17;1.00;;;1.00;;
4309;SDS011;2168;53.576;9.980;2023-11-21T11:03:42;1.00;;;1.00;;
4309;SDS011;2168;53.576;9.980;2023-11-21T11:06:09;1.50;;;1.50;;
4309;SDS011;2168;53.576;9.980;2023-11-21T11:08:36;1.30;;;1.30;;
4309;SDS011;2168;53.576;9.980;2023-11-21T11:11:02;1.23;;;1.23;;
4309;SDS011;2168;53.576;9.980;2023-11-21T11:13:27;1.67;;;1.67;;
4309;SDS011;2168;53.576;9.980;2023-11-21T11:16:01;1.40;;;1.40;;
4309;SDS011;2168;53.576;9.980;2023-11-21T11:18:27;1.60;;;1.60;;
4309;SDS011;2168;53.576;9.980;2023-11-21T11:20:53;1.40;;;1.40;;
4309;SDS011;2168;53.576;9.980;2023-11-21T11:23:36;1.80;;;1.80;;
4309;SDS011;2168;53.576;9.980;2023-11-21T11:28:49;1.40;;;1.40;;
4309;SDS011;2168;53.576;9.980;2023-11-21T11:31:25;1.30;;;1.30;;
4309;SDS011;2168;53.576;9.980;2023-11-21T11:33:57;1.30;;;1.30;;
4309;SDS011;2168;53.576;9.980;2023-11-21T11:36:31;1.40;;;1.40;;
4309;SDS011;2168;53.576;9.980;2023-11-21T11:38:59;1.90;;;1.90;;
4309;SDS011;2168;53.576;9.980;2023-11-21T11:41:28;1.30;;;1.30;;
4309;SDS011;2168;53.576;9.980;2023-11-21T11:43:54;1.40;;;1.40;;
4309;SDS011;2168;53.576;9.980;2023-11-21T11:46:20;1.40;;;1.40;;
4309;SDS011;2168;53.576;9.980;2023-11-21T11:48:48;1.00;;;1.00;;
4309;SDS011;2168;53.576;9.980;2023-11-21T11:51:27;1.90;;;1.90;;
4309;SDS011;2168;53.576;9.980;2023-11-21T11:53:52;1.10;;;1.10;;
4309;SDS011;2168;53.576;9.980;2023-11-21T11:56:33;1.23;;;1.23;;
4309;SDS011;2168;53.576;9.980;2023-11-21T11:59:03;1.30;;;1.30;;
4309;SDS011;2168;53.576;9.980;2023-11-21T12:01:32;1.50;;;1.50;;
4309;SDS011;2168;53.576;9.980;2023-11-21T12:07:02;2.10;;;2.10;;
4309;SDS011;2168;53.576;9.980;2023-11-21T12:09:28;2.60;;;2.60;;
4309;SDS011;2168;53.576;9.980;2023-11-21T12:11:55;1.67;;;1.67;;
4309;SDS011;2168;53.576;9.980;2023-11-21T12:14:21;1.70;;;1.70;;
4309;SDS011;2168;53.576;9.980;2023-11-21T12:16:47;1.67;;;1.67;;
4309;SDS011;2168;53.576;9.980;2023-11-21T12:19:13;1.60;;;1.60;;
4309;SDS011;2168;53.576;9.980;2023-11-21T12:21:38;1.67;;;1.67;;
4309;SDS011;2168;53.576;9.980;2023-11-21T12:24:06;1.70;;;1.70;;
4309;SDS011;2168;53.576;9.980;2023-11-21T12:26:33;2.10;;;2.10;;
4309;SDS011;2168;53.576;9.980;2023-11-21T12:28:58;2.53;;;2.53;;
4309;SDS011;2168;53.576;9.980;2023-11-21T12:31:24;1.43;;;1.43;;
4309;SDS011;2168;53.576;9.980;2023-11-21T12:33:49;1.57;;;1.57;;
4309;SDS011;2168;53.576;9.980;2023-11-21T12:36:15;1.50;;;1.50;;
4309;SDS011;2168;53.576;9.980;2023-11-21T12:38:41;1.53;;;1.53;;
4309;SDS011;2168;53.576;9.980;2023-11-21T12:41:07;1.30;;;1.30;;
4309;SDS011;2168;53.576;9.980;2023-11-21T12:43:32;1.70;;;1.70;;
4309;SDS011;2168;53.576;9.980;2023-11-21T12:46:07;1.90;;;1.90;;
4309;SDS011;2168;53.576;9.980;2023-11-21T12:48:34;2.17;;;2.17;;
4309;SDS011;2168;53.576;9.980;2023-11-21T12:50:59;1.50;;;1.50;;
4309;SDS011;2168;53.576;9.980;2023-11-21T12:53:25;1.80;;;1.80;;
4309;SDS011;2168;53.576;9.980;2023-11-21T12:55:50;2.03;;;2.03;;
4309;SDS011;2168;53.576;9.980;2023-11-21T12:58:16;1.27;;;1.27;;
4309;SDS011;2168;53.576;9.980;2023-11-21T13:00:45;1.73;;;1.73;;
4309;SDS011;2168;53.576;9.980;2023-11-21T13:03:11;1.23;;;1.23;;
4309;SDS011;2168;53.576;9.980;2023-11-21T13:05:50;1.30;;;1.30;;
4309;SDS011;2168;53.576;9.980;2023-11-21T13:08:16;2.33;;;2.33;;
4309;SDS011;2168;53.576;9.980;2023-11-21T13:10:44;1.70;;;1.70;;
4309;SDS011;2168;53.576;9.980;2023-11-21T13:13:11;2.10;;;2.10;;
4309;SDS011;2168;53.576;9.980;2023-11-21T13:15:47;1.30;;;1.30;;
4309;SDS011;2168;53.576;9.980;2023-11-21T13:18:12;1.67;;;1.67;;
4309;SDS011;2168;53.576;9.980;2023-11-21T13:20:38;1.30;;;1.30;;
4309;SDS011;2168;53.576;9.980;2023-11-21T13:23:07;1.47;;;1.47;;
4309;SDS011;2168;53.576;9.980;2023-11-21T13:25:32;1.37;;;1.37;;
4309;SDS011;2168;53.576;9.980;2023-11-21T13:27:58;1.80;;;1.80;;
4309;SDS011;2168;53.576;9.980;2023-11-21T13:30:24;1.83;;;1.83;;
4309;SDS011;2168;53.576;9.980;2023-11-21T13:32:54;1.57;;;1.57;;
4309;SDS011;2168;53.576;9.980;2023-11-21T13:35:22;1.33;;;1.33;;
4309;SDS011;2168;53.576;9.980;2023-11-21T13:37:55;1.30;;;1.30;;
4309;SDS011;2168;53.576;9.980;2023-11-21T13:40:22;2.00;;;2.00;;
4309;SDS011;2168;53.576;9.980;2023-11-21T13:42:51;2.33;;;2.33;;
4309;SDS011;2168;53.576;9.980;2023-11-21T13:45:18;1.40;;;1.40;;
4309;SDS011;2168;53.576;9.980;2023-11-21T13:47:45;1.40;;;1.40;;
4309;SDS011;2168;53.576;9.980;2023-11-21T13:50:10;1.37;;;1.37;;
4309;SDS011;2168;53.576;9.980;2023-11-21T13:52:42;1.33;;;1.33;;
4309;SDS011;2168;53.576;9.980;2023-11-21T13:55:07;1.20;;;1.20;;
4309;SDS011;2168;53.576;9.980;2023-11-21T13:57:39;1.13;;;1.13;;
4309;SDS011;2168;53.576;9.980;2023-11-21T14:00:04;1.30;;;1.30;;
4309;SDS011;2168;53.576;9.980;2023-11-21T14:02:35;1.00;;;1.00;;
4309;SDS011;2168;53.576;9.980;2023-11-21T14:05:07;1.10;;;1.10;;
4309;SDS011;2168;53.576;9.980;2023-11-21T14:07:34;1.33;;;1.33;;
4309;SDS011;2168;53.576;9.980;2023-11-21T14:10:03;1.30;;;1.30;;
4309;SDS011;2168;53.576;9.980;2023-11-21T14:12:28;1.60;;;1.60;;
4309;SDS011;2168;53.576;9.980;2023-11-21T14:14:54;1.63;;;1.63;;
4309;SDS011;2168;53.576;9.980;2023-11-21T14:17:20;1.80;;;1.80;;
4309;SDS011;2168;53.576;9.980;2023-11-21T14:20:05;3.03;;;3.03;;
4309;SDS011;2168;53.576;9.980;2023-11-21T14:25:33;1.20;;;1.20;;
4309;SDS011;2168;53.576;9.980;2023-11-21T14:28:17;1.13;;;1.13;;
4309;SDS011;2168;53.576;9.980;2023-11-21T14:30:56;1.40;;;1.40;;
4309;SDS011;2168;53.576;9.980;2023-11-21T14:36:24;1.60;;;1.60;;
4309;SDS011;2168;53.576;9.980;2023-11-21T14:38:49;1.00;;;1.00;;
4309;SDS011;2168;53.576;9.980;2023-11-21T14:41:14;1.77;;;1.77;;
4309;SDS011;2168;53.576;9.980;2023-11-21T14:43:39;1.40;;;1.40;;
4309;SDS011;2168;53.576;9.980;2023-11-21T14:46:06;1.30;;;1.30;;
4309;SDS011;2168;53.576;9.980;2023-11-21T14:48:35;1.80;;;1.80;;
4309;SDS011;2168;53.576;9.980;2023-11-21T14:51:23;1.30;;;1.30;;
4309;SDS011;2168;53.576;9.980;2023-11-21T14:53:57;1.57;;;1.57;;
4309;SDS011;2168;53.576;9.980;2023-11-21T14:56:31;1.80;;;1.80;;
4309;SDS011;2168;53.576;9.980;2023-11-21T14:58:59;1.60;;;1.60;;
4309;SDS011;2168;53.576;9.980;2023-11-21T15:01:30;1.90;;;1.90;;
4309;SDS011;2168;53.576;9.980;2023-11-21T15:04:09;1.57;;;1.57;;
4309;SDS011;2168;53.576;9.980;2023-11-21T15:06:45;1.93;;;1.93;;
4309;SDS011;2168;53.576;9.980;2023-11-21T15:09:12;2.30;;;2.30;;
4309;SDS011;2168;53.576;9.980;2023-11-21T15:11:37;1.63;;;1.63;;
4309;SDS011;2168;53.576;9.980;2023-11-21T15:14:03;1.40;;;1.40;;
4309;SDS011;2168;53.576;9.980;2023-11-21T15:16:32;2.33;;;2.33;;
4309;SDS011;2168;53.576;9.980;2023-11-21T15:18:57;1.40;;;1.40;;
4309;SDS011;2168;53.576;9.980;2023-11-21T15:21:23;1.27;;;1.27;;
4309;SDS011;2168;53.576;9.980;2023-11-21T15:23:49;1.57;;;1.57;;
4309;SDS011;2168;53.576;9.980;2023-11-21T15:26:15;1.57;;;1.57;;
4309;SDS011;2168;53.576;9.980;2023-11-21T15:28:40;1.20;;;1.20;;
4309;SDS011;2168;53.576;9.980;2023-11-21T15:31:05;1.07;;;1.07;;
4309;SDS011;2168;53.576;9.980;2023-11-21T15:33:32;1.00;;;1.00;;
4309;SDS011;2168;53.576;9.980;2023-11-21T15:35:58;1.00;;;1.00;;
4309;SDS011;2168;53.576;9.980;2023-11-21T15:38:23;1.10;;;1.10;;